createdAt,value
2022-09-28T00:01:59.553Z,67.23
2022-09-28T00:04:26.310Z,68.55
2022-09-28T00:06:53.007Z,67.57
2022-09-28T00:09:19.576Z,68.11
2022-09-28T00:11:46.968Z,67.70
2022-09-28T00:14:13.842Z,68.69
2022-09-28T00:16:43.723Z,69.18
2022-09-28T00:19:12.660Z,68.86
2022-09-28T00:21:40.871Z,68.03
2022-09-28T00:24:17.397Z,69.24
2022-09-28T00:26:50.083Z,70.88
2022-09-28T00:29:30.133Z,69.51
2022-09-28T00:32:03.048Z,70.22
2022-09-28T00:34:32.452Z,71.18
2022-09-28T00:37:00.310Z,70.93
2022-09-28T00:39:27.223Z,71.96
2022-09-28T00:41:54.628Z,72.14
2022-09-28T00:44:27.036Z,72.12
2022-09-28T00:47:01.831Z,72.12
2022-09-28T00:49:48.547Z,71.84
2022-09-28T00:52:25.626Z,71.11
2022-09-28T00:54:53.363Z,70.58
2022-09-28T00:57:22.895Z,70.44
2022-09-28T00:59:51.310Z,69.28
2022-09-28T01:02:19.444Z,69.26
2022-09-28T01:04:46.432Z,69.16
2022-09-28T01:07:13.731Z,68.63
2022-09-28T01:09:40.816Z,68.37
2022-09-28T01:12:08.178Z,68.56
2022-09-28T01:14:35.036Z,68.69
2022-09-28T01:17:22.027Z,69.00
2022-09-28T01:20:07.081Z,68.49
2022-09-28T01:23:13.915Z,68.30
2022-09-28T01:26:09.604Z,68.13
2022-09-28T01:28:36.620Z,68.00
2022-09-28T01:31:11.296Z,67.96
2022-09-28T01:33:42.988Z,67.58
2022-09-28T01:36:19.375Z,67.52
2022-09-28T01:38:59.999Z,67.61
2022-09-28T01:41:31.624Z,68.35
2022-09-28T01:44:03.071Z,69.72
2022-09-28T01:46:38.479Z,68.33
2022-09-28T01:49:22.659Z,67.65
2022-09-28T01:52:00.840Z,67.87
2022-09-28T01:54:47.124Z,68.98
2022-09-28T01:57:49.520Z,68.58
2022-09-28T02:00:18.489Z,68.89
2022-09-28T02:02:48.571Z,68.39
2022-09-28T02:05:28.714Z,67.49
2022-09-28T02:08:26.918Z,67.53
2022-09-28T02:11:02.972Z,67.82
2022-09-28T02:13:40.835Z,67.79
2022-09-28T02:16:16.395Z,67.76
2022-09-28T02:18:43.978Z,67.03
2022-09-28T02:21:18.967Z,67.67
2022-09-28T02:24:06.860Z,67.22
2022-09-28T02:26:39.208Z,67.23
2022-09-28T02:29:05.866Z,67.48
2022-09-28T02:31:32.719Z,70.37
2022-09-28T02:33:59.449Z,68.69
2022-09-28T02:36:28.647Z,68.58
2022-09-28T02:38:57.311Z,68.18
2022-09-28T02:41:39.825Z,68.51
2022-09-28T02:44:12.018Z,68.00
2022-09-28T02:46:45.539Z,68.32
2022-09-28T02:49:33.702Z,68.56
2022-09-28T02:52:06.306Z,70.63
2022-09-28T02:54:47.330Z,72.37
2022-09-28T02:57:19.758Z,72.93
2022-09-28T02:59:49.280Z,74.06
2022-09-28T03:02:34.931Z,72.42
2022-09-28T03:05:06.362Z,70.82
2022-09-28T03:07:40.114Z,70.79
2022-09-28T03:10:45.006Z,70.72
2022-09-28T03:13:13.344Z,71.29
2022-09-28T03:15:45.250Z,70.66
2022-09-28T03:18:14.514Z,70.18
2022-09-28T03:20:41.074Z,69.50
2022-09-28T03:23:35.855Z,69.31
2022-09-28T03:25:54.849Z,68.98
2022-09-28T03:28:22.033Z,69.47
2022-09-28T03:30:49.142Z,69.23
2022-09-28T03:33:15.796Z,68.71
2022-09-28T03:35:42.451Z,68.66
2022-09-28T03:38:09.007Z,68.69
2022-09-28T03:40:35.634Z,70.09
2022-09-28T03:43:02.233Z,69.43
2022-09-28T03:45:28.867Z,68.69
2022-09-28T03:47:55.542Z,68.84
2022-09-28T03:50:22.111Z,68.22
2022-09-28T03:52:48.958Z,68.16
2022-09-28T03:55:15.520Z,68.66
2022-09-28T03:57:42.102Z,69.70
2022-09-28T04:00:09.831Z,69.61
2022-09-28T04:02:36.494Z,69.17
2022-09-28T04:05:03.974Z,69.93
2022-09-28T04:07:31.345Z,70.17
2022-09-28T04:09:58.250Z,70.55
2022-09-28T04:12:24.801Z,69.84
2022-09-28T04:14:51.382Z,70.41
2022-09-28T04:17:17.964Z,71.14
2022-09-28T04:19:44.534Z,71.35
2022-09-28T04:22:11.099Z,70.20
2022-09-28T04:24:37.673Z,69.45
2022-09-28T04:27:22.829Z,69.32
2022-09-28T04:29:49.394Z,68.99
2022-09-28T04:32:16.013Z,69.15
2022-09-28T04:34:44.305Z,69.18
2022-09-28T04:37:11.190Z,68.54
2022-09-28T04:39:38.007Z,68.37
2022-09-28T04:42:04.648Z,68.01
2022-09-28T04:44:31.245Z,68.11
2022-09-28T04:47:00.676Z,68.02
2022-09-28T04:49:31.211Z,67.89
2022-09-28T04:51:57.783Z,68.31
2022-09-28T04:54:24.335Z,68.32
2022-09-28T04:56:51.991Z,67.84
2022-09-28T04:59:18.700Z,67.60
2022-09-28T05:01:45.313Z,68.59
2022-09-28T05:04:11.869Z,67.75
2022-09-28T05:06:38.456Z,67.47
2022-09-28T05:09:05.079Z,67.59
2022-09-28T05:11:31.646Z,67.92
2022-09-28T05:13:58.226Z,67.56
2022-09-28T05:16:26.303Z,67.46
2022-09-28T05:18:56.603Z,68.57
2022-09-28T05:21:25.416Z,68.51
2022-09-28T05:23:52.593Z,67.75
2022-09-28T05:26:19.317Z,67.76
2022-09-28T05:28:45.958Z,69.38
2022-09-28T05:31:12.667Z,69.63
2022-09-28T05:33:39.623Z,68.81
2022-09-28T05:36:09.790Z,68.43
2022-09-28T05:38:36.662Z,67.96
2022-09-28T05:41:06.608Z,69.82
2022-09-28T05:43:33.680Z,70.36
2022-09-28T05:46:00.611Z,68.93
2022-09-28T05:48:28.369Z,70.06
2022-09-28T05:50:55.622Z,70.97
2022-09-28T05:53:22.257Z,70.64
2022-09-28T05:55:48.886Z,70.15
2022-09-28T05:58:16.229Z,69.98
2022-09-28T06:00:43.416Z,70.68
2022-09-28T06:03:14.649Z,71.81
2022-09-28T06:05:41.720Z,71.30
2022-09-28T06:08:13.091Z,71.73
2022-09-28T06:10:40.260Z,70.82
2022-09-28T06:13:07.323Z,70.71
2022-09-28T06:15:35.516Z,71.25
2022-09-28T06:18:16.776Z,70.20
2022-09-28T06:20:44.170Z,69.39
2022-09-28T06:23:12.552Z,69.05
2022-09-28T06:25:39.842Z,69.33
2022-09-28T06:28:10.356Z,69.52
2022-09-28T06:30:38.580Z,70.39
2022-09-28T06:33:08.363Z,70.81
2022-09-28T06:35:35.509Z,71.17
2022-09-28T06:38:02.316Z,70.69
2022-09-28T06:40:29.385Z,70.30
2022-09-28T06:42:57.338Z,69.54
2022-09-28T06:45:25.604Z,70.43
2022-09-28T06:48:00.634Z,69.98
2022-09-28T06:50:32.340Z,70.63
2022-09-28T06:53:00.192Z,71.17
2022-09-28T06:55:27.767Z,69.99
2022-09-28T06:58:09.547Z,70.19
2022-09-28T07:00:37.614Z,69.61
2022-09-28T07:03:07.418Z,70.06
2022-09-28T07:05:36.910Z,69.39
2022-09-28T07:08:06.490Z,69.08
2022-09-28T07:10:33.744Z,68.71
2022-09-28T07:13:02.985Z,68.55
2022-09-28T07:15:30.075Z,68.21
2022-09-28T07:18:06.663Z,67.11
2022-09-28T07:20:45.276Z,68.69
2022-09-28T07:23:19.318Z,69.56
2022-09-28T07:25:47.955Z,70.15
2022-09-28T07:28:15.254Z,69.06
2022-09-28T07:30:44.297Z,68.42
2022-09-28T07:33:14.427Z,68.31
2022-09-28T07:35:44.230Z,67.99
2022-09-28T07:38:11.407Z,67.74
2022-09-28T07:40:56.818Z,68.66
2022-09-28T07:43:23.569Z,69.16
2022-09-28T07:45:53.001Z,68.57
2022-09-28T07:48:20.286Z,69.57
2022-09-28T07:50:54.277Z,69.28
2022-09-28T07:53:24.896Z,69.43
2022-09-28T07:55:53.072Z,68.92
2022-09-28T07:58:20.850Z,69.31
2022-09-28T08:00:49.301Z,68.30
2022-09-28T08:03:17.582Z,69.51
2022-09-28T08:05:44.577Z,69.00
2022-09-28T08:08:11.264Z,68.47
2022-09-28T08:10:38.326Z,68.06
2022-09-28T08:13:06.547Z,68.22
2022-09-28T08:15:36.960Z,68.03
2022-09-28T08:18:05.098Z,68.62
2022-09-28T08:20:51.868Z,68.27
2022-09-28T08:23:20.359Z,68.18
2022-09-28T08:25:50.957Z,68.73
2022-09-28T08:28:17.968Z,69.54
2022-09-28T08:30:45.885Z,69.05
2022-09-28T08:33:23.215Z,68.58
2022-09-28T08:36:00.384Z,68.70
2022-09-28T08:38:31.453Z,68.52
2022-09-28T08:41:16.263Z,68.83
2022-09-28T08:44:01.405Z,68.20
2022-09-28T08:46:40.454Z,68.78
2022-09-28T08:49:26.713Z,68.52
2022-09-28T08:51:59.826Z,68.60
2022-09-28T08:54:54.931Z,67.97
2022-09-28T08:57:30.304Z,68.78
2022-09-28T08:59:59.858Z,68.62
2022-09-28T09:02:33.804Z,67.94
2022-09-28T09:05:05.040Z,68.22
2022-09-28T09:07:34.509Z,67.84
2022-09-28T09:10:22.088Z,67.40
2022-09-28T09:13:27.187Z,68.06
2022-09-28T09:16:08.249Z,68.49
2022-09-28T09:18:52.944Z,67.64
2022-09-28T09:21:42.701Z,67.88
2022-09-28T09:24:21.585Z,69.18
2022-09-28T09:26:54.617Z,68.75
2022-09-28T09:29:40.189Z,68.25
2022-09-28T09:32:21.086Z,68.41
2022-09-28T09:35:00.745Z,69.13
2022-09-28T09:37:56.542Z,68.39
2022-09-28T09:40:46.616Z,67.12
2022-09-28T09:43:31.858Z,67.47
2022-09-28T09:46:15.762Z,67.29
2022-09-28T09:48:59.715Z,67.13
2022-09-28T09:51:30.005Z,67.58
2022-09-28T09:54:02.024Z,66.34
2022-09-28T09:56:44.494Z,66.82
2022-09-28T09:59:18.796Z,66.71
2022-09-28T10:01:46.114Z,67.46
2022-09-28T10:04:21.099Z,66.97
2022-09-28T10:06:50.635Z,66.89
2022-09-28T10:09:24.482Z,64.23
2022-09-28T10:11:52.085Z,65.90
2022-09-28T10:14:24.126Z,65.99
2022-09-28T10:16:54.397Z,65.60
2022-09-28T10:19:33.092Z,64.17
2022-09-28T10:22:04.840Z,64.29
2022-09-28T10:24:35.880Z,64.13
2022-09-28T10:27:11.721Z,65.50
2022-09-28T10:30:04.567Z,64.21
2022-09-28T10:32:45.311Z,63.88
2022-09-28T10:35:19.635Z,63.65
2022-09-28T10:38:04.478Z,65.99
2022-09-28T10:41:10.505Z,63.38
2022-09-28T10:44:10.289Z,65.75
2022-09-28T10:46:39.270Z,66.99
2022-09-28T10:49:41.098Z,65.81
2022-09-28T10:52:31.557Z,65.99
2022-09-28T10:54:58.141Z,66.50
2022-09-28T10:57:29.551Z,64.20
2022-09-28T10:59:56.122Z,64.49
2022-09-28T11:02:30.295Z,65.63
2022-09-28T11:05:02.126Z,64.10
2022-09-28T11:07:32.219Z,64.81
2022-09-28T11:10:01.240Z,64.74
2022-09-28T11:12:37.122Z,65.25
2022-09-28T11:15:07.227Z,63.54
2022-09-28T11:17:40.543Z,63.43
2022-09-28T11:20:27.780Z,63.76
2022-09-28T11:22:58.701Z,64.29
2022-09-28T11:25:27.551Z,63.83
2022-09-28T11:27:54.058Z,64.68
2022-09-28T11:30:24.958Z,64.24
2022-09-28T11:32:54.322Z,64.81
2022-09-28T11:35:25.326Z,64.56
2022-09-28T11:38:03.113Z,64.47
2022-09-28T11:41:08.946Z,63.92
2022-09-28T11:43:41.325Z,64.65
2022-09-28T11:46:39.846Z,65.39
2022-09-28T11:49:25.009Z,65.77
2022-09-28T11:51:55.360Z,65.62
2022-09-28T11:54:31.447Z,66.07
2022-09-28T11:57:01.817Z,67.03
2022-09-28T11:59:38.804Z,67.84
2022-09-28T12:02:58.771Z,67.45
2022-09-28T12:05:52.052Z,67.52
2022-09-28T12:08:27.349Z,66.55
2022-09-28T12:11:02.840Z,67.62
2022-09-28T12:13:37.298Z,66.44
2022-09-28T12:19:23.483Z,65.33
2022-09-28T12:21:55.506Z,66.20
2022-09-28T12:24:28.844Z,65.79
2022-09-28T12:27:03.319Z,64.44
2022-09-28T12:29:55.022Z,64.20
2022-09-28T12:32:38.525Z,63.65
2022-09-28T12:35:31.514Z,62.32
2022-09-28T12:38:31.619Z,62.93
2022-09-28T12:41:23.351Z,61.86
2022-09-28T12:44:08.455Z,60.14
2022-09-28T12:47:06.270Z,60.47
2022-09-28T12:53:02.335Z,60.50
2022-09-28T12:55:36.165Z,60.49
2022-09-28T12:58:32.891Z,60.40
2022-09-28T13:01:20.903Z,59.98
2022-09-28T13:04:15.136Z,61.14
2022-09-28T13:06:56.155Z,60.48
2022-09-28T13:09:25.141Z,61.91
2022-09-28T13:11:55.614Z,62.29
2022-09-28T13:14:44.134Z,62.49
2022-09-28T13:17:38.828Z,62.60
2022-09-28T13:20:25.149Z,63.74
2022-09-28T13:23:07.350Z,63.78
2022-09-28T13:25:36.407Z,64.09
2022-09-28T13:28:05.936Z,63.98
2022-09-28T13:30:39.004Z,64.81
2022-09-28T13:33:07.331Z,64.62
2022-09-28T13:35:34.975Z,64.99
2022-09-28T13:38:17.482Z,65.13
2022-09-28T13:41:06.266Z,65.29
2022-09-28T13:43:54.639Z,66.05
2022-09-28T13:46:33.603Z,66.28
2022-09-28T13:49:18.503Z,66.72
2022-09-28T13:52:06.778Z,66.45
2022-09-28T13:54:45.158Z,65.99
2022-09-28T13:57:11.694Z,65.77
2022-09-28T14:00:07.520Z,65.54
2022-09-28T14:03:06.223Z,65.38
2022-09-28T14:06:08.330Z,64.82
2022-09-28T14:08:44.236Z,64.93
2022-09-28T14:11:25.002Z,64.71
2022-09-28T14:13:58.846Z,64.29
2022-09-28T14:16:28.500Z,65.79
2022-09-28T14:19:10.150Z,65.39
2022-09-28T14:22:00.010Z,64.55
2022-09-28T14:24:59.885Z,66.01
2022-09-28T14:28:00.287Z,65.58
2022-09-28T14:30:48.567Z,65.27
2022-09-28T14:33:21.393Z,65.57
2022-09-28T14:36:02.096Z,65.54
2022-09-28T14:38:55.503Z,65.59
2022-09-28T14:41:31.346Z,65.77
2022-09-28T14:43:59.527Z,65.55
2022-09-28T14:46:28.601Z,65.67
2022-09-28T14:49:17.580Z,65.38
2022-09-28T14:51:47.264Z,66.36
2022-09-28T14:54:22.564Z,66.19
2022-09-28T14:56:52.188Z,66.49
2022-09-28T14:59:36.066Z,67.58
2022-09-28T15:02:24.898Z,67.50
2022-09-28T15:04:55.893Z,67.58
2022-09-28T15:07:48.024Z,66.08
2022-09-28T15:10:27.464Z,64.78
2022-09-28T15:12:56.864Z,64.58
2022-09-28T15:15:28.853Z,64.81
2022-09-28T15:18:08.561Z,63.86
2022-09-28T15:20:42.066Z,64.54
2022-09-28T15:23:23.886Z,64.46
2022-09-28T15:25:55.035Z,63.94
2022-09-28T15:28:24.295Z,64.54
2022-09-28T15:30:51.935Z,64.20
2022-09-28T15:33:42.839Z,64.46
2022-09-28T15:36:24.317Z,64.77
2022-09-28T15:39:02.376Z,64.66
2022-09-28T15:41:29.659Z,64.35
2022-09-28T15:44:12.768Z,64.97
2022-09-28T15:46:56.879Z,64.26
2022-09-28T15:49:39.091Z,65.25
2022-09-28T15:52:06.273Z,64.68
2022-09-28T15:54:44.454Z,64.37
2022-09-28T15:57:37.041Z,65.69
2022-09-28T16:00:22.632Z,66.07
2022-09-28T16:03:01.783Z,65.27
2022-09-28T16:06:11.786Z,64.95
2022-09-28T16:08:43.720Z,65.32
2022-09-28T16:11:26.263Z,65.24
2022-09-28T16:14:28.208Z,64.58
2022-09-28T16:16:55.299Z,64.24
2022-09-28T16:19:27.558Z,63.94
2022-09-28T16:22:02.051Z,63.98
2022-09-28T16:24:33.919Z,63.60
2022-09-28T16:27:22.202Z,63.86
2022-09-28T16:30:17.251Z,64.83
2022-09-28T16:32:52.934Z,65.32
2022-09-28T16:35:49.852Z,65.06
2022-09-28T16:38:18.223Z,65.66
2022-09-28T16:40:50.801Z,65.43
2022-09-28T16:43:27.010Z,64.77
2022-09-28T16:45:59.383Z,64.75
2022-09-28T16:48:28.571Z,65.24
2022-09-28T16:50:56.195Z,65.15
2022-09-28T16:53:41.627Z,64.64
2022-09-28T16:56:08.527Z,64.61
2022-09-28T16:58:37.120Z,65.31
2022-09-28T17:01:03.933Z,65.12
2022-09-28T17:03:30.784Z,64.83
2022-09-28T17:05:57.442Z,64.52
2022-09-28T17:08:25.169Z,64.66
2022-09-28T17:13:47.208Z,64.53
2022-09-28T17:16:42.643Z,64.50
2022-09-28T17:19:23.748Z,64.28
2022-09-28T17:21:51.831Z,64.13
2022-09-28T17:24:19.486Z,64.36
2022-09-28T17:26:47.747Z,64.38
2022-09-28T17:29:15.879Z,64.38
2022-09-28T17:31:43.822Z,64.43
2022-09-28T17:34:12.169Z,64.62
2022-09-28T17:36:41.039Z,65.05
2022-09-28T17:39:14.681Z,65.88
2022-09-28T17:41:41.555Z,65.45
2022-09-28T17:44:08.738Z,64.98
2022-09-28T17:46:45.802Z,64.76
2022-09-28T17:49:12.836Z,64.93
2022-09-28T17:51:39.530Z,64.88
2022-09-28T17:54:08.171Z,64.90
2022-09-28T17:56:36.139Z,64.79
2022-09-28T17:59:05.715Z,65.14
2022-09-28T18:01:36.185Z,65.38
2022-09-28T18:04:05.027Z,65.42
2022-09-28T18:06:37.316Z,65.38
2022-09-28T18:09:04.872Z,65.40
2022-09-28T18:11:33.310Z,65.38
2022-09-28T18:14:00.681Z,64.93
2022-09-28T18:16:28.947Z,65.21
2022-09-28T18:18:55.916Z,65.08
2022-09-28T18:21:22.562Z,64.68
2022-09-28T18:23:49.169Z,65.52
2022-09-28T18:26:16.857Z,65.27
2022-09-28T18:28:43.479Z,65.66
2022-09-28T18:31:12.317Z,65.20
2022-09-28T18:33:39.755Z,65.33
2022-09-28T18:36:07.506Z,65.28
2022-09-28T18:38:37.931Z,65.43
2022-09-28T18:41:15.941Z,65.17
2022-09-28T18:43:48.926Z,65.66
2022-09-28T18:46:18.176Z,65.86
2022-09-28T18:48:44.952Z,66.32
2022-09-28T18:51:12.623Z,65.99
2022-09-28T18:53:40.036Z,65.89
2022-09-28T18:56:08.477Z,66.09
2022-09-28T18:58:37.052Z,67.04
2022-09-28T19:04:17.006Z,66.36
2022-09-28T19:06:44.742Z,65.59
2022-09-28T19:09:12.341Z,65.46
2022-09-28T19:11:39.005Z,65.35
2022-09-28T19:14:05.688Z,65.22
2022-09-28T19:16:34.115Z,65.56
2022-09-28T19:19:03.084Z,65.69
2022-09-28T19:21:30.735Z,65.36
2022-09-28T19:24:00.980Z,65.50
2022-09-28T19:26:28.634Z,65.99
2022-09-28T19:28:58.971Z,66.10
2022-09-28T19:31:26.966Z,65.45
2022-09-28T19:33:53.754Z,65.54
2022-09-28T19:36:24.062Z,65.94
2022-09-28T19:38:52.731Z,65.95
2022-09-28T19:41:43.578Z,66.38
2022-09-28T19:44:24.412Z,66.33
2022-09-28T19:46:59.242Z,66.59
2022-09-28T19:49:27.799Z,65.87
2022-09-28T19:52:15.161Z,66.34
2022-09-28T19:55:00.255Z,66.73
2022-09-28T19:57:29.333Z,67.35
2022-09-28T20:00:01.798Z,67.25
2022-09-28T20:02:29.505Z,66.97
2022-09-28T20:04:56.190Z,66.50
2022-09-28T20:07:22.815Z,66.42
2022-09-28T20:09:49.376Z,66.42
2022-09-28T20:12:15.947Z,66.99
2022-09-28T20:14:42.534Z,66.42
2022-09-28T20:17:09.955Z,66.81
2022-09-28T20:19:36.623Z,67.28
2022-09-28T20:22:04.029Z,67.57
2022-09-28T20:24:31.659Z,67.90
2022-09-28T20:26:58.982Z,68.53
2022-09-28T20:29:25.645Z,69.50
2022-09-28T20:31:52.475Z,69.31
2022-09-28T20:34:19.159Z,68.98
2022-09-28T20:36:45.772Z,68.71
2022-09-28T20:39:12.744Z,68.50
2022-09-28T20:41:39.896Z,69.44
2022-09-28T20:44:07.011Z,70.86
2022-09-28T20:46:34.952Z,70.44
2022-09-28T20:49:01.943Z,71.21
2022-09-28T20:51:28.692Z,71.37
2022-09-28T20:53:57.083Z,71.46
2022-09-28T20:56:25.985Z,70.40
2022-09-28T20:58:53.243Z,69.50
2022-09-28T21:01:25.276Z,69.27
2022-09-28T21:03:57.121Z,69.25
2022-09-28T21:06:26.410Z,69.49
2022-09-28T21:08:53.444Z,69.20
2022-09-28T21:11:22.653Z,69.76
2022-09-28T21:13:53.349Z,69.77
2022-09-28T21:16:20.121Z,69.87
2022-09-28T21:18:47.567Z,70.05
2022-09-28T21:21:17.131Z,70.41
2022-09-28T21:23:45.020Z,70.04
2022-09-28T21:26:24.430Z,69.95
2022-09-28T21:28:53.958Z,70.62
2022-09-28T21:31:24.903Z,70.27
2022-09-28T21:33:55.245Z,70.16
2022-09-28T21:36:21.886Z,70.02
2022-09-28T21:38:49.356Z,69.59
2022-09-28T21:41:16.497Z,70.34
2022-09-28T21:43:43.075Z,70.90
2022-09-28T21:46:10.439Z,70.79
2022-09-28T21:48:37.066Z,70.50
2022-09-28T21:51:06.395Z,70.46
2022-09-28T21:53:37.886Z,70.99
2022-09-28T21:56:06.627Z,71.70
2022-09-28T21:58:34.523Z,71.40
2022-09-28T22:01:04.316Z,71.31
2022-09-28T22:03:32.328Z,71.15
2022-09-28T22:05:59.455Z,70.76
2022-09-28T22:08:26.763Z,71.05
2022-09-28T22:11:08.531Z,70.85
2022-09-28T22:13:46.528Z,70.64
2022-09-28T22:16:15.008Z,70.42
2022-09-28T22:18:42.217Z,69.67
2022-09-28T22:21:26.708Z,69.44
2022-09-28T22:23:53.525Z,69.84
2022-09-28T22:26:23.494Z,69.26
2022-09-28T22:28:58.186Z,69.02
2022-09-28T22:31:39.701Z,68.64
2022-09-28T22:34:07.506Z,69.38
2022-09-28T22:36:34.693Z,68.98
2022-09-28T22:39:02.383Z,69.35
2022-09-28T22:41:29.195Z,69.26
2022-09-28T22:43:56.176Z,69.22
2022-09-28T22:46:25.641Z,69.36
2022-09-28T22:48:54.966Z,69.11
2022-09-28T22:51:22.823Z,69.35
2022-09-28T22:53:49.811Z,69.34
2022-09-28T22:56:19.054Z,69.05
2022-09-28T22:58:46.554Z,68.89
2022-09-28T23:01:19.283Z,69.23
2022-09-28T23:03:46.531Z,69.43
2022-09-28T23:06:16.589Z,69.65
2022-09-28T23:08:44.802Z,69.45
2022-09-28T23:11:11.845Z,69.74
2022-09-28T23:13:38.530Z,69.06
2022-09-28T23:16:11.542Z,68.86
2022-09-28T23:18:42.490Z,68.25
2022-09-28T23:21:17.699Z,68.07
2022-09-28T23:23:45.642Z,67.74
2022-09-28T23:26:17.392Z,70.07
2022-09-28T23:28:44.609Z,71.94
2022-09-28T23:31:23.249Z,73.25
2022-09-28T23:33:50.563Z,73.50
2022-09-28T23:36:18.121Z,74.48
2022-09-28T23:38:44.850Z,74.41
2022-09-28T23:41:11.642Z,74.30
2022-09-28T23:43:38.388Z,72.53
2022-09-28T23:46:05.853Z,70.52
2022-09-28T23:48:32.581Z,70.00
2022-09-28T23:50:59.748Z,69.56
2022-09-28T23:53:26.463Z,69.29
2022-09-28T23:55:53.340Z,69.00
2022-09-28T23:58:20.003Z,68.81
